sensor_id;sensor_type;location;lat;lon;timestamp;temperature;humidity
3690;DHT22;1861;50.240;8.596;2023-05-07T00:01:09;16.30;99.90
3690;DHT22;1861;50.240;8.596;2023-05-07T00:03:37;16.30;99.90
3690;DHT22;1861;50.240;8.596;2023-05-07T00:06:06;16.30;99.90
3690;DHT22;1861;50.240;8.596;2023-05-07T00:08:34;16.30;99.90
3690;DHT22;1861;50.240;8.596;2023-05-07T00:11:02;16.30;99.90
3690;DHT22;1861;50.240;8.596;2023-05-07T00:13:30;16.20;99.90
3690;DHT22;1861;50.240;8.596;2023-05-07T00:16:03;16.20;99.90
3690;DHT22;1861;50.240;8.596;2023-05-07T00:18:31;16.20;99.90
3690;DHT22;1861;50.240;8.596;2023-05-07T00:20:59;16.20;99.90
3690;DHT22;1861;50.240;8.596;2023-05-07T00:23:27;16.30;99.90
3690;DHT22;1861;50.240;8.596;2023-05-07T00:25:56;16.20;99.90
3690;DHT22;1861;50.240;8.596;2023-05-07T00:28:24;16.20;99.90
3690;DHT22;1861;50.240;8.596;2023-05-07T00:30:52;16.20;99.90
3690;DHT22;1861;50.240;8.596;2023-05-07T00:33:22;16.20;99.90
3690;DHT22;1861;50.240;8.596;2023-05-07T00:35:50;16.20;99.90
3690;DHT22;1861;50.240;8.596;2023-05-07T00:38:18;16.20;99.90
3690;DHT22;1861;50.240;8.596;2023-05-07T00:40:46;16.20;99.90
3690;DHT22;1861;50.240;8.596;2023-05-07T00:43:14;16.20;99.90
3690;DHT22;1861;50.240;8.596;2023-05-07T00:45:43;16.20;99.90
3690;DHT22;1861;50.240;8.596;2023-05-07T00:48:11;16.20;99.90
3690;DHT22;1861;50.240;8.596;2023-05-07T00:50:43;16.20;99.90
3690;DHT22;1861;50.240;8.596;2023-05-07T00:53:11;16.20;99.90
3690;DHT22;1861;50.240;8.596;2023-05-07T00:55:39;16.10;99.90
3690;DHT22;1861;50.240;8.596;2023-05-07T00:58:08;16.20;99.90
3690;DHT22;1861;50.240;8.596;2023-05-07T01:00:36;16.20;99.90
3690;DHT22;1861;50.240;8.596;2023-05-07T01:03:05;16.10;99.90
3690;DHT22;1861;50.240;8.596;2023-05-07T01:05:34;16.10;99.90
3690;DHT22;1861;50.240;8.596;2023-05-07T01:08:04;16.10;99.90
3690;DHT22;1861;50.240;8.596;2023-05-07T01:10:32;16.20;99.90
3690;DHT22;1861;50.240;8.596;2023-05-07T01:13:01;16.10;99.90
3690;DHT22;1861;50.240;8.596;2023-05-07T01:15:30;16.10;99.90
3690;DHT22;1861;50.240;8.596;2023-05-07T01:17:58;16.20;99.90
3690;DHT22;1861;50.240;8.596;2023-05-07T01:20:31;16.10;99.90
3690;DHT22;1861;50.240;8.596;2023-05-07T01:23:01;16.10;99.90
3690;DHT22;1861;50.240;8.596;2023-05-07T01:25:31;16.10;99.90
3690;DHT22;1861;50.240;8.596;2023-05-07T01:28:01;16.10;99.90
3690;DHT22;1861;50.240;8.596;2023-05-07T01:30:33;16.10;99.90
3690;DHT22;1861;50.240;8.596;2023-05-07T01:33:08;16.10;99.90
3690;DHT22;1861;50.240;8.596;2023-05-07T01:35:40;16.10;99.90
3690;DHT22;1861;50.240;8.596;2023-05-07T01:38:11;16.10;99.90
3690;DHT22;1861;50.240;8.596;2023-05-07T01:40:40;16.10;99.90
3690;DHT22;1861;50.240;8.596;2023-05-07T01:43:09;16.00;99.90
3690;DHT22;1861;50.240;8.596;2023-05-07T01:45:38;16.00;99.90
3690;DHT22;1861;50.240;8.596;2023-05-07T01:48:09;16.00;99.90
3690;DHT22;1861;50.240;8.596;2023-05-07T01:50:38;16.00;99.90
3690;DHT22;1861;50.240;8.596;2023-05-07T01:53:06;16.00;99.90
3690;DHT22;1861;50.240;8.596;2023-05-07T01:55:36;16.00;99.90
3690;DHT22;1861;50.240;8.596;2023-05-07T01:58:04;16.10;99.90
3690;DHT22;1861;50.240;8.596;2023-05-07T02:00:32;16.10;99.90
3690;DHT22;1861;50.240;8.596;2023-05-07T02:03:01;16.00;99.90
3690;DHT22;1861;50.240;8.596;2023-05-07T02:05:37;16.00;99.90
3690;DHT22;1861;50.240;8.596;2023-05-07T02:08:15;16.00;99.90
3690;DHT22;1861;50.240;8.596;2023-05-07T02:10:45;16.00;99.90
3690;DHT22;1861;50.240;8.596;2023-05-07T02:13:13;16.00;99.90
3690;DHT22;1861;50.240;8.596;2023-05-07T02:15:41;16.00;99.90
3690;DHT22;1861;50.240;8.596;2023-05-07T02:18:09;16.00;99.90
3690;DHT22;1861;50.240;8.596;2023-05-07T02:20:37;16.00;99.90
3690;DHT22;1861;50.240;8.596;2023-05-07T02:23:05;16.00;99.90
3690;DHT22;1861;50.240;8.596;2023-05-07T02:25:33;16.00;99.90
3690;DHT22;1861;50.240;8.596;2023-05-07T02:28:03;16.00;99.90
3690;DHT22;1861;50.240;8.596;2023-05-07T02:30:57;16.00;99.90
3690;DHT22;1861;50.240;8.596;2023-05-07T02:33:28;16.00;99.90
3690;DHT22;1861;50.240;8.596;2023-05-07T02:35:56;15.90;99.90
3690;DHT22;1861;50.240;8.596;2023-05-07T02:38:24;15.90;99.90
3690;DHT22;1861;50.240;8.596;2023-05-07T02:40:52;15.90;99.90
3690;DHT22;1861;50.240;8.596;2023-05-07T02:43:22;15.90;99.90
3690;DHT22;1861;50.240;8.596;2023-05-07T02:45:50;16.00;99.90
3690;DHT22;1861;50.240;8.596;2023-05-07T02:48:28;15.90;99.90
3690;DHT22;1861;50.240;8.596;2023-05-07T02:50:56;15.90;99.90
3690;DHT22;1861;50.240;8.596;2023-05-07T02:53:24;16.00;99.90
3690;DHT22;1861;50.240;8.596;2023-05-07T02:55:53;15.90;99.90
3690;DHT22;1861;50.240;8.596;2023-05-07T02:58:22;15.90;99.90
3690;DHT22;1861;50.240;8.596;2023-05-07T03:00:51;15.90;99.90
3690;DHT22;1861;50.240;8.596;2023-05-07T03:03:30;15.90;99.90
3690;DHT22;1861;50.240;8.596;2023-05-07T03:05:58;15.90;99.90
3690;DHT22;1861;50.240;8.596;2023-05-07T03:08:26;15.90;99.90
3690;DHT22;1861;50.240;8.596;2023-05-07T03:10:54;15.80;99.90
3690;DHT22;1861;50.240;8.596;2023-05-07T03:13:24;15.80;99.90
3690;DHT22;1861;50.240;8.596;2023-05-07T03:15:52;15.80;99.90
3690;DHT22;1861;50.240;8.596;2023-05-07T03:18:20;15.80;99.90
3690;DHT22;1861;50.240;8.596;2023-05-07T03:20:48;15.80;99.90
3690;DHT22;1861;50.240;8.596;2023-05-07T03:23:17;15.80;99.90
3690;DHT22;1861;50.240;8.596;2023-05-07T03:25:48;15.80;99.90
3690;DHT22;1861;50.240;8.596;2023-05-07T03:28:16;15.80;99.90
3690;DHT22;1861;50.240;8.596;2023-05-07T03:30:53;15.80;99.90
3690;DHT22;1861;50.240;8.596;2023-05-07T03:33:22;15.80;99.90
3690;DHT22;1861;50.240;8.596;2023-05-07T03:35:50;15.80;99.90
3690;DHT22;1861;50.240;8.596;2023-05-07T03:38:22;15.70;99.90
3690;DHT22;1861;50.240;8.596;2023-05-07T03:40:50;15.70;99.90
3690;DHT22;1861;50.240;8.596;2023-05-07T03:43:19;15.70;99.90
3690;DHT22;1861;50.240;8.596;2023-05-07T03:45:54;15.70;99.90
3690;DHT22;1861;50.240;8.596;2023-05-07T03:48:25;15.70;99.90
3690;DHT22;1861;50.240;8.596;2023-05-07T03:50:57;15.80;99.90
3690;DHT22;1861;50.240;8.596;2023-05-07T03:53:29;15.70;99.90
3690;DHT22;1861;50.240;8.596;2023-05-07T03:55:57;15.70;99.90
3690;DHT22;1861;50.240;8.596;2023-05-07T03:58:25;15.70;99.90
3690;DHT22;1861;50.240;8.596;2023-05-07T04:00:58;15.70;99.90
3690;DHT22;1861;50.240;8.596;2023-05-07T04:03:28;15.60;99.90
3690;DHT22;1861;50.240;8.596;2023-05-07T04:05:58;15.70;99.90
3690;DHT22;1861;50.240;8.596;2023-05-07T04:08:27;15.60;99.90
3690;DHT22;1861;50.240;8.596;2023-05-07T04:10:55;15.60;99.90
3690;DHT22;1861;50.240;8.596;2023-05-07T04:13:25;15.60;99.90
3690;DHT22;1861;50.240;8.596;2023-05-07T04:15:55;15.60;99.90
3690;DHT22;1861;50.240;8.596;2023-05-07T04:18:26;15.60;99.90
3690;DHT22;1861;50.240;8.596;2023-05-07T04:20:54;15.60;99.90
3690;DHT22;1861;50.240;8.596;2023-05-07T04:23:22;15.70;99.90
3690;DHT22;1861;50.240;8.596;2023-05-07T04:25:51;15.70;99.90
3690;DHT22;1861;50.240;8.596;2023-05-07T04:28:38;15.60;99.90
3690;DHT22;1861;50.240;8.596;2023-05-07T04:31:07;15.70;99.90
3690;DHT22;1861;50.240;8.596;2023-05-07T04:33:38;15.70;99.90
3690;DHT22;1861;50.240;8.596;2023-05-07T04:36:09;15.70;99.90
3690;DHT22;1861;50.240;8.596;2023-05-07T04:38:44;15.60;99.90
3690;DHT22;1861;50.240;8.596;2023-05-07T04:41:13;15.60;99.90
3690;DHT22;1861;50.240;8.596;2023-05-07T04:43:42;15.60;99.90
3690;DHT22;1861;50.240;8.596;2023-05-07T04:46:12;15.60;99.90
3690;DHT22;1861;50.240;8.596;2023-05-07T04:48:42;15.60;99.90
3690;DHT22;1861;50.240;8.596;2023-05-07T04:51:10;15.70;99.90
3690;DHT22;1861;50.240;8.596;2023-05-07T04:53:39;15.70;99.90
3690;DHT22;1861;50.240;8.596;2023-05-07T04:56:07;15.70;99.90
3690;DHT22;1861;50.240;8.596;2023-05-07T04:58:41;15.70;99.90
3690;DHT22;1861;50.240;8.596;2023-05-07T05:01:10;15.70;99.90
3690;DHT22;1861;50.240;8.596;2023-05-07T05:03:39;15.70;99.90
3690;DHT22;1861;50.240;8.596;2023-05-07T05:06:10;15.70;99.90
3690;DHT22;1861;50.240;8.596;2023-05-07T05:08:38;15.70;99.90
3690;DHT22;1861;50.240;8.596;2023-05-07T05:11:06;15.70;99.90
3690;DHT22;1861;50.240;8.596;2023-05-07T05:13:35;15.70;99.90
3690;DHT22;1861;50.240;8.596;2023-05-07T05:16:14;15.70;99.90
3690;DHT22;1861;50.240;8.596;2023-05-07T05:18:42;15.70;99.90
3690;DHT22;1861;50.240;8.596;2023-05-07T05:21:15;15.70;99.90
3690;DHT22;1861;50.240;8.596;2023-05-07T05:23:46;15.70;99.90
3690;DHT22;1861;50.240;8.596;2023-05-07T05:26:18;15.70;99.90
3690;DHT22;1861;50.240;8.596;2023-05-07T05:28:48;15.80;99.90
3690;DHT22;1861;50.240;8.596;2023-05-07T05:31:19;15.70;99.90
3690;DHT22;1861;50.240;8.596;2023-05-07T05:33:49;15.70;99.90
3690;DHT22;1861;50.240;8.596;2023-05-07T05:36:18;15.70;99.90
3690;DHT22;1861;50.240;8.596;2023-05-07T05:38:48;15.70;99.90
3690;DHT22;1861;50.240;8.596;2023-05-07T05:41:17;15.80;99.90
3690;DHT22;1861;50.240;8.596;2023-05-07T05:43:45;15.80;99.90
3690;DHT22;1861;50.240;8.596;2023-05-07T05:46:13;15.80;99.90
3690;DHT22;1861;50.240;8.596;2023-05-07T05:48:41;15.80;99.90
3690;DHT22;1861;50.240;8.596;2023-05-07T05:51:11;15.90;99.90
3690;DHT22;1861;50.240;8.596;2023-05-07T05:53:40;15.90;99.90
3690;DHT22;1861;50.240;8.596;2023-05-07T05:56:08;15.90;99.90
3690;DHT22;1861;50.240;8.596;2023-05-07T05:58:38;15.90;99.90
3690;DHT22;1861;50.240;8.596;2023-05-07T06:01:07;16.00;99.90
3690;DHT22;1861;50.240;8.596;2023-05-07T06:03:36;15.90;99.90
3690;DHT22;1861;50.240;8.596;2023-05-07T06:06:11;16.00;99.90
3690;DHT22;1861;50.240;8.596;2023-05-07T06:08:40;16.00;99.90
3690;DHT22;1861;50.240;8.596;2023-05-07T06:11:11;16.00;99.90
3690;DHT22;1861;50.240;8.596;2023-05-07T06:13:41;16.10;99.90
3690;DHT22;1861;50.240;8.596;2023-05-07T06:16:09;16.00;99.90
3690;DHT22;1861;50.240;8.596;2023-05-07T06:18:37;16.10;99.90
3690;DHT22;1861;50.240;8.596;2023-05-07T06:21:06;16.10;99.90
3690;DHT22;1861;50.240;8.596;2023-05-07T06:23:35;16.00;99.90
3690;DHT22;1861;50.240;8.596;2023-05-07T06:26:05;16.10;99.90
3690;DHT22;1861;50.240;8.596;2023-05-07T06:28:38;16.10;99.90
3690;DHT22;1861;50.240;8.596;2023-05-07T06:31:15;16.10;99.90
3690;DHT22;1861;50.240;8.596;2023-05-07T06:33:49;16.10;99.90
3690;DHT22;1861;50.240;8.596;2023-05-07T06:36:18;16.10;99.90
3690;DHT22;1861;50.240;8.596;2023-05-07T06:38:47;16.10;99.90
3690;DHT22;1861;50.240;8.596;2023-05-07T06:41:16;16.10;99.90
3690;DHT22;1861;50.240;8.596;2023-05-07T06:43:44;16.10;99.90
3690;DHT22;1861;50.240;8.596;2023-05-07T06:46:25;16.20;99.90
3690;DHT22;1861;50.240;8.596;2023-05-07T06:48:53;16.20;99.90
3690;DHT22;1861;50.240;8.596;2023-05-07T06:51:21;16.20;99.90
3690;DHT22;1861;50.240;8.596;2023-05-07T06:53:50;16.10;99.90
3690;DHT22;1861;50.240;8.596;2023-05-07T06:56:20;16.20;99.90
3690;DHT22;1861;50.240;8.596;2023-05-07T06:58:49;16.20;99.90
3690;DHT22;1861;50.240;8.596;2023-05-07T07:01:18;16.20;99.90
3690;DHT22;1861;50.240;8.596;2023-05-07T07:03:46;16.20;99.90
3690;DHT22;1861;50.240;8.596;2023-05-07T07:06:15;16.20;99.90
3690;DHT22;1861;50.240;8.596;2023-05-07T07:08:43;16.20;99.90
3690;DHT22;1861;50.240;8.596;2023-05-07T07:11:15;16.30;99.90
3690;DHT22;1861;50.240;8.596;2023-05-07T07:13:44;16.20;99.90
3690;DHT22;1861;50.240;8.596;2023-05-07T07:16:12;16.20;99.90
3690;DHT22;1861;50.240;8.596;2023-05-07T07:18:40;16.30;99.90
3690;DHT22;1861;50.240;8.596;2023-05-07T07:21:09;16.30;99.90
3690;DHT22;1861;50.240;8.596;2023-05-07T07:23:37;16.30;99.90
3690;DHT22;1861;50.240;8.596;2023-05-07T07:26:05;16.30;99.90
3690;DHT22;1861;50.240;8.596;2023-05-07T07:28:33;16.40;99.90
3690;DHT22;1861;50.240;8.596;2023-05-07T07:31:03;16.30;99.90
3690;DHT22;1861;50.240;8.596;2023-05-07T07:33:31;16.40;99.90
3690;DHT22;1861;50.240;8.596;2023-05-07T07:35:59;16.40;99.90
3690;DHT22;1861;50.240;8.596;2023-05-07T07:38:27;16.40;99.90
3690;DHT22;1861;50.240;8.596;2023-05-07T07:40:56;16.30;99.90
3690;DHT22;1861;50.240;8.596;2023-05-07T07:43:24;16.40;99.90
3690;DHT22;1861;50.240;8.596;2023-05-07T07:45:53;16.30;99.90
3690;DHT22;1861;50.240;8.596;2023-05-07T07:48:22;16.40;99.90
3690;DHT22;1861;50.240;8.596;2023-05-07T07:50:50;16.40;99.90
3690;DHT22;1861;50.240;8.596;2023-05-07T07:53:19;16.40;99.90
3690;DHT22;1861;50.240;8.596;2023-05-07T07:55:47;16.40;99.90
3690;DHT22;1861;50.240;8.596;2023-05-07T07:58:18;16.40;99.90
3690;DHT22;1861;50.240;8.596;2023-05-07T08:00:47;16.40;99.90
3690;DHT22;1861;50.240;8.596;2023-05-07T08:03:15;16.40;99.90
3690;DHT22;1861;50.240;8.596;2023-05-07T08:05:49;16.50;99.90
3690;DHT22;1861;50.240;8.596;2023-05-07T08:08:18;16.50;99.90
3690;DHT22;1861;50.240;8.596;2023-05-07T08:10:46;16.50;99.90
3690;DHT22;1861;50.240;8.596;2023-05-07T08:13:24;16.50;99.90
3690;DHT22;1861;50.240;8.596;2023-05-07T08:15:52;16.50;99.90
3690;DHT22;1861;50.240;8.596;2023-05-07T08:18:21;16.50;99.90
3690;DHT22;1861;50.240;8.596;2023-05-07T08:20:53;16.60;99.90
3690;DHT22;1861;50.240;8.596;2023-05-07T08:23:24;16.50;99.90
3690;DHT22;1861;50.240;8.596;2023-05-07T08:25:53;16.60;99.90
3690;DHT22;1861;50.240;8.596;2023-05-07T08:28:22;16.50;99.90
3690;DHT22;1861;50.240;8.596;2023-05-07T08:30:51;16.60;99.90
3690;DHT22;1861;50.240;8.596;2023-05-07T08:33:20;16.50;99.90
3690;DHT22;1861;50.240;8.596;2023-05-07T08:35:48;16.50;99.90
3690;DHT22;1861;50.240;8.596;2023-05-07T08:38:19;16.50;99.90
3690;DHT22;1861;50.240;8.596;2023-05-07T08:40:47;16.50;99.90
3690;DHT22;1861;50.240;8.596;2023-05-07T08:43:19;16.50;99.90
3690;DHT22;1861;50.240;8.596;2023-05-07T08:45:49;16.50;99.90
3690;DHT22;1861;50.240;8.596;2023-05-07T08:48:22;16.60;99.90
3690;DHT22;1861;50.240;8.596;2023-05-07T08:50:59;16.50;99.90
3690;DHT22;1861;50.240;8.596;2023-05-07T08:53:29;16.60;99.90
3690;DHT22;1861;50.240;8.596;2023-05-07T08:55:58;16.60;99.90
3690;DHT22;1861;50.240;8.596;2023-05-07T08:58:28;16.60;99.90
3690;DHT22;1861;50.240;8.596;2023-05-07T09:00:57;16.60;99.90
3690;DHT22;1861;50.240;8.596;2023-05-07T09:03:25;16.60;99.90
3690;DHT22;1861;50.240;8.596;2023-05-07T09:05:55;16.70;99.90
3690;DHT22;1861;50.240;8.596;2023-05-07T09:08:26;16.60;99.90
3690;DHT22;1861;50.240;8.596;2023-05-07T09:10:59;16.60;99.90
3690;DHT22;1861;50.240;8.596;2023-05-07T09:13:28;16.70;99.90
3690;DHT22;1861;50.240;8.596;2023-05-07T09:16:09;16.70;99.90
3690;DHT22;1861;50.240;8.596;2023-05-07T09:18:42;16.70;99.90
3690;DHT22;1861;50.240;8.596;2023-05-07T09:21:15;16.70;99.90
3690;DHT22;1861;50.240;8.596;2023-05-07T09:23:44;16.70;99.90
3690;DHT22;1861;50.240;8.596;2023-05-07T09:26:15;16.70;99.90
3690;DHT22;1861;50.240;8.596;2023-05-07T09:28:44;16.80;99.90
3690;DHT22;1861;50.240;8.596;2023-05-07T09:31:13;16.80;99.90
3690;DHT22;1861;50.240;8.596;2023-05-07T09:33:46;16.80;99.90
3690;DHT22;1861;50.240;8.596;2023-05-07T09:36:14;16.80;99.90
3690;DHT22;1861;50.240;8.596;2023-05-07T09:38:43;16.80;99.90
3690;DHT22;1861;50.240;8.596;2023-05-07T09:41:12;16.80;99.90
3690;DHT22;1861;50.240;8.596;2023-05-07T09:44:05;16.80;99.90
3690;DHT22;1861;50.240;8.596;2023-05-07T09:46:42;16.80;99.90
3690;DHT22;1861;50.240;8.596;2023-05-07T09:49:21;16.80;99.90
3690;DHT22;1861;50.240;8.596;2023-05-07T09:51:52;16.90;99.90
3690;DHT22;1861;50.240;8.596;2023-05-07T09:54:24;16.80;99.90
3690;DHT22;1861;50.240;8.596;2023-05-07T09:56:55;16.90;99.90
3690;DHT22;1861;50.240;8.596;2023-05-07T09:59:27;16.90;99.90
3690;DHT22;1861;50.240;8.596;2023-05-07T10:01:59;16.90;99.90
3690;DHT22;1861;50.240;8.596;2023-05-07T10:04:35;16.90;99.90
3690;DHT22;1861;50.240;8.596;2023-05-07T10:07:04;17.00;99.90
3690;DHT22;1861;50.240;8.596;2023-05-07T10:09:35;17.00;99.90
3690;DHT22;1861;50.240;8.596;2023-05-07T10:12:08;17.10;99.90
3690;DHT22;1861;50.240;8.596;2023-05-07T10:14:38;17.10;99.90
3690;DHT22;1861;50.240;8.596;2023-05-07T10:17:07;17.10;99.90
3690;DHT22;1861;50.240;8.596;2023-05-07T10:19:36;17.10;99.90
3690;DHT22;1861;50.240;8.596;2023-05-07T10:22:06;17.10;99.90
3690;DHT22;1861;50.240;8.596;2023-05-07T10:24:41;17.20;99.90
3690;DHT22;1861;50.240;8.596;2023-05-07T10:27:15;17.20;99.90
3690;DHT22;1861;50.240;8.596;2023-05-07T10:29:59;17.20;99.90
3690;DHT22;1861;50.240;8.596;2023-05-07T10:32:37;17.30;99.90
3690;DHT22;1861;50.240;8.596;2023-05-07T10:35:16;17.30;99.90
3690;DHT22;1861;50.240;8.596;2023-05-07T10:37:48;17.30;99.90
3690;DHT22;1861;50.240;8.596;2023-05-07T10:40:18;17.30;99.90
3690;DHT22;1861;50.240;8.596;2023-05-07T10:42:56;17.30;99.90
3690;DHT22;1861;50.240;8.596;2023-05-07T10:45:29;17.30;99.90
3690;DHT22;1861;50.240;8.596;2023-05-07T10:48:10;17.40;99.90
3690;DHT22;1861;50.240;8.596;2023-05-07T10:50:45;17.40;99.90
3690;DHT22;1861;50.240;8.596;2023-05-07T10:53:24;17.40;99.90
3690;DHT22;1861;50.240;8.596;2023-05-07T10:56:26;17.40;99.90
3690;DHT22;1861;50.240;8.596;2023-05-07T10:59:33;17.50;99.90
3690;DHT22;1861;50.240;8.596;2023-05-07T11:02:15;17.50;99.90
3690;DHT22;1861;50.240;8.596;2023-05-07T11:05:20;17.60;99.90
3690;DHT22;1861;50.240;8.596;2023-05-07T11:08:00;17.60;99.90
3690;DHT22;1861;50.240;8.596;2023-05-07T11:10:51;17.70;99.90
3690;DHT22;1861;50.240;8.596;2023-05-07T11:13:42;17.70;99.90
3690;DHT22;1861;50.240;8.596;2023-05-07T11:16:19;17.70;99.90
3690;DHT22;1861;50.240;8.596;2023-05-07T11:18:55;17.60;99.90
3690;DHT22;1861;50.240;8.596;2023-05-07T11:21:34;17.70;99.90
3690;DHT22;1861;50.240;8.596;2023-05-07T11:24:23;17.70;99.90
3690;DHT22;1861;50.240;8.596;2023-05-07T11:26:55;17.70;99.90
3690;DHT22;1861;50.240;8.596;2023-05-07T11:29:25;17.70;99.90
3690;DHT22;1861;50.240;8.596;2023-05-07T11:31:58;17.70;99.90
3690;DHT22;1861;50.240;8.596;2023-05-07T11:34:34;17.70;99.90
3690;DHT22;1861;50.240;8.596;2023-05-07T11:37:02;17.70;99.90
3690;DHT22;1861;50.240;8.596;2023-05-07T11:39:41;17.60;99.90
3690;DHT22;1861;50.240;8.596;2023-05-07T11:42:27;17.60;99.90
3690;DHT22;1861;50.240;8.596;2023-05-07T11:44:55;17.60;99.90
3690;DHT22;1861;50.240;8.596;2023-05-07T11:47:24;17.70;99.90
3690;DHT22;1861;50.240;8.596;2023-05-07T11:49:54;17.70;99.90
3690;DHT22;1861;50.240;8.596;2023-05-07T11:52:23;17.70;99.90
3690;DHT22;1861;50.240;8.596;2023-05-07T11:54:53;17.70;99.90
3690;DHT22;1861;50.240;8.596;2023-05-07T11:57:22;17.80;99.90
3690;DHT22;1861;50.240;8.596;2023-05-07T11:59:53;17.70;99.90
3690;DHT22;1861;50.240;8.596;2023-05-07T12:02:21;17.70;99.90
3690;DHT22;1861;50.240;8.596;2023-05-07T12:04:53;17.70;99.90
3690;DHT22;1861;50.240;8.596;2023-05-07T12:07:23;17.70;99.90
3690;DHT22;1861;50.240;8.596;2023-05-07T12:09:52;17.70;99.90
3690;DHT22;1861;50.240;8.596;2023-05-07T12:12:20;17.70;99.90
3690;DHT22;1861;50.240;8.596;2023-05-07T12:14:48;17.70;99.90
3690;DHT22;1861;50.240;8.596;2023-05-07T12:17:16;17.70;99.90
3690;DHT22;1861;50.240;8.596;2023-05-07T12:19:45;17.70;99.90
3690;DHT22;1861;50.240;8.596;2023-05-07T12:22:15;17.70;99.90
3690;DHT22;1861;50.240;8.596;2023-05-07T12:24:44;17.70;99.90
3690;DHT22;1861;50.240;8.596;2023-05-07T12:27:13;17.70;99.90
3690;DHT22;1861;50.240;8.596;2023-05-07T12:29:44;17.70;99.90
3690;DHT22;1861;50.240;8.596;2023-05-07T12:32:13;17.80;99.90
3690;DHT22;1861;50.240;8.596;2023-05-07T12:34:42;17.80;99.90
3690;DHT22;1861;50.240;8.596;2023-05-07T12:37:12;17.80;99.90
3690;DHT22;1861;50.240;8.596;2023-05-07T12:39:47;17.70;99.90
3690;DHT22;1861;50.240;8.596;2023-05-07T12:42:16;17.80;99.90
3690;DHT22;1861;50.240;8.596;2023-05-07T12:44:46;17.80;99.90
3690;DHT22;1861;50.240;8.596;2023-05-07T12:47:15;17.80;99.90
3690;DHT22;1861;50.240;8.596;2023-05-07T12:49:43;17.80;99.90
3690;DHT22;1861;50.240;8.596;2023-05-07T12:52:12;17.90;99.90
3690;DHT22;1861;50.240;8.596;2023-05-07T12:54:41;17.90;99.90
3690;DHT22;1861;50.240;8.596;2023-05-07T12:57:10;17.90;99.90
3690;DHT22;1861;50.240;8.596;2023-05-07T12:59:39;17.90;99.90
3690;DHT22;1861;50.240;8.596;2023-05-07T13:02:08;17.90;99.90
3690;DHT22;1861;50.240;8.596;2023-05-07T13:04:38;17.90;99.90
3690;DHT22;1861;50.240;8.596;2023-05-07T13:07:06;17.90;99.90
3690;DHT22;1861;50.240;8.596;2023-05-07T13:09:34;17.90;99.90
3690;DHT22;1861;50.240;8.596;2023-05-07T13:12:04;17.90;99.90
3690;DHT22;1861;50.240;8.596;2023-05-07T13:14:34;17.90;99.90
3690;DHT22;1861;50.240;8.596;2023-05-07T13:17:02;17.90;99.90
3690;DHT22;1861;50.240;8.596;2023-05-07T13:19:30;17.90;99.90
3690;DHT22;1861;50.240;8.596;2023-05-07T13:21:58;17.90;99.90
3690;DHT22;1861;50.240;8.596;2023-05-07T13:24:26;17.90;99.90
3690;DHT22;1861;50.240;8.596;2023-05-07T13:26:54;17.90;99.90
3690;DHT22;1861;50.240;8.596;2023-05-07T13:29:22;17.90;99.90
3690;DHT22;1861;50.240;8.596;2023-05-07T13:31:57;17.90;99.90
3690;DHT22;1861;50.240;8.596;2023-05-07T13:34:25;17.80;99.90
3690;DHT22;1861;50.240;8.596;2023-05-07T13:36:53;17.80;99.90
3690;DHT22;1861;50.240;8.596;2023-05-07T13:39:21;17.90;99.90
3690;DHT22;1861;50.240;8.596;2023-05-07T13:41:49;17.90;99.90
3690;DHT22;1861;50.240;8.596;2023-05-07T13:44:18;17.90;99.90
3690;DHT22;1861;50.240;8.596;2023-05-07T13:46:46;17.80;99.90
3690;DHT22;1861;50.240;8.596;2023-05-07T13:49:15;17.80;99.90
3690;DHT22;1861;50.240;8.596;2023-05-07T13:51:43;17.80;99.90
3690;DHT22;1861;50.240;8.596;2023-05-07T13:54:12;17.80;99.90
3690;DHT22;1861;50.240;8.596;2023-05-07T13:56:40;17.80;99.90
3690;DHT22;1861;50.240;8.596;2023-05-07T13:59:08;17.80;99.90
3690;DHT22;1861;50.240;8.596;2023-05-07T14:01:36;17.80;99.90
3690;DHT22;1861;50.240;8.596;2023-05-07T14:04:04;17.80;99.90
3690;DHT22;1861;50.240;8.596;2023-05-07T14:06:34;17.80;99.90
3690;DHT22;1861;50.240;8.596;2023-05-07T14:09:02;17.80;99.90
3690;DHT22;1861;50.240;8.596;2023-05-07T14:11:30;17.80;99.90
3690;DHT22;1861;50.240;8.596;2023-05-07T14:14:01;17.80;99.90
3690;DHT22;1861;50.240;8.596;2023-05-07T14:16:30;17.80;99.90
3690;DHT22;1861;50.240;8.596;2023-05-07T14:18:58;17.80;99.90
3690;DHT22;1861;50.240;8.596;2023-05-07T14:21:26;17.80;99.90
3690;DHT22;1861;50.240;8.596;2023-05-07T14:23:55;17.80;99.90
3690;DHT22;1861;50.240;8.596;2023-05-07T14:26:24;17.80;99.90
3690;DHT22;1861;50.240;8.596;2023-05-07T14:28:53;17.80;99.90
3690;DHT22;1861;50.240;8.596;2023-05-07T14:31:24;17.80;99.90
3690;DHT22;1861;50.240;8.596;2023-05-07T14:33:52;17.90;99.90
3690;DHT22;1861;50.240;8.596;2023-05-07T14:36:20;17.80;99.90
3690;DHT22;1861;50.240;8.596;2023-05-07T14:38:49;17.80;99.90
3690;DHT22;1861;50.240;8.596;2023-05-07T14:41:19;17.90;99.90
3690;DHT22;1861;50.240;8.596;2023-05-07T14:43:47;17.90;99.90
3690;DHT22;1861;50.240;8.596;2023-05-07T14:46:17;17.90;99.90
3690;DHT22;1861;50.240;8.596;2023-05-07T14:48:45;17.90;99.90
3690;DHT22;1861;50.240;8.596;2023-05-07T14:51:14;17.90;99.90
3690;DHT22;1861;50.240;8.596;2023-05-07T14:53:42;17.90;99.90
3690;DHT22;1861;50.240;8.596;2023-05-07T14:56:10;17.90;99.90
3690;DHT22;1861;50.240;8.596;2023-05-07T14:58:40;17.80;99.90
3690;DHT22;1861;50.240;8.596;2023-05-07T15:01:08;17.90;99.90
3690;DHT22;1861;50.240;8.596;2023-05-07T15:03:36;17.80;99.90
3690;DHT22;1861;50.240;8.596;2023-05-07T15:06:05;17.80;99.90
3690;DHT22;1861;50.240;8.596;2023-05-07T15:08:33;17.80;99.90
3690;DHT22;1861;50.240;8.596;2023-05-07T15:11:01;17.80;99.90
3690;DHT22;1861;50.240;8.596;2023-05-07T15:13:29;17.80;99.90
3690;DHT22;1861;50.240;8.596;2023-05-07T15:15:59;17.80;99.90
3690;DHT22;1861;50.240;8.596;2023-05-07T15:18:27;17.80;99.90
3690;DHT22;1861;50.240;8.596;2023-05-07T15:20:55;17.80;99.90
3690;DHT22;1861;50.240;8.596;2023-05-07T15:23:24;17.80;99.90
3690;DHT22;1861;50.240;8.596;2023-05-07T15:25:53;17.80;99.90
3690;DHT22;1861;50.240;8.596;2023-05-07T15:28:21;17.80;99.90
3690;DHT22;1861;50.240;8.596;2023-05-07T15:30:53;17.80;99.90
3690;DHT22;1861;50.240;8.596;2023-05-07T15:33:23;17.80;99.90
3690;DHT22;1861;50.240;8.596;2023-05-07T15:35:52;17.80;99.90
3690;DHT22;1861;50.240;8.596;2023-05-07T15:38:20;17.80;99.90
3690;DHT22;1861;50.240;8.596;2023-05-07T15:40:48;17.80;99.90
3690;DHT22;1861;50.240;8.596;2023-05-07T15:43:16;17.80;99.90
3690;DHT22;1861;50.240;8.596;2023-05-07T15:45:44;17.70;99.90
3690;DHT22;1861;50.240;8.596;2023-05-07T15:48:12;17.70;99.90
3690;DHT22;1861;50.240;8.596;2023-05-07T15:50:42;17.70;99.90
3690;DHT22;1861;50.240;8.596;2023-05-07T15:53:10;17.70;99.90
3690;DHT22;1861;50.240;8.596;2023-05-07T15:55:39;17.70;99.90
3690;DHT22;1861;50.240;8.596;2023-05-07T15:58:09;17.80;99.90
3690;DHT22;1861;50.240;8.596;2023-05-07T16:00:37;17.70;99.90
3690;DHT22;1861;50.240;8.596;2023-05-07T16:03:07;17.80;99.90
3690;DHT22;1861;50.240;8.596;2023-05-07T16:05:35;17.70;99.90
3690;DHT22;1861;50.240;8.596;2023-05-07T16:08:05;17.70;99.90
3690;DHT22;1861;50.240;8.596;2023-05-07T16:10:33;17.70;99.90
3690;DHT22;1861;50.240;8.596;2023-05-07T16:13:01;17.70;99.90
3690;DHT22;1861;50.240;8.596;2023-05-07T16:15:29;17.70;99.90
3690;DHT22;1861;50.240;8.596;2023-05-07T16:17:57;17.70;99.90
3690;DHT22;1861;50.240;8.596;2023-05-07T16:20:27;17.70;99.90
3690;DHT22;1861;50.240;8.596;2023-05-07T16:22:56;17.70;99.90